METAR Data
IDs: Format: Raw Decoded Include TAF

Data at: 1433 UTC 10 Aug 2022

KCCR 101353Z 20007KT 10SM CLR 17/13 A3005 RMK AO2 SLP160 T01670133
KCCR 101253Z AUTO 20004KT 10SM CLR 17/13 A3003 RMK AO2 SLP156 T01670128
KCCR 101153Z AUTO 20006KT 10SM CLR 17/13 A3002 RMK AO2 SLP151 T01670133 10183 20161 53000
KCCR 101053Z AUTO 22008KT 10SM CLR 17/13 A3002 RMK AO2 SLP150 T01670133
KCCR 100953Z AUTO 17005KT 10SM CLR 17/13 A3002 RMK AO2 SLP151 T01720133
KCCR 100853Z AUTO 19008KT 10SM CLR 18/14 A3002 RMK AO2 SLP151 T01780139 51001
KCCR 100753Z AUTO 20009KT 10SM CLR 18/13 A3001 RMK AO2 SLP150 T01780133 402830161
KCCR 100653Z AUTO 20009KT 10SM CLR 18/13 A3002 RMK AO2 SLP151 T01830133
KCCR 100553Z AUTO 18006KT 10SM CLR 18/14 A3001 RMK AO2 SLP149 T01830139 10272 20183 51015
KCCR 100453Z AUTO 18006KT 10SM CLR 19/13 A3000 RMK AO2 SLP146 T01890133
KCCR 100353Z 21006KT 10SM CLR 20/14 A2998 RMK AO2 SLP138 T02000139
KCCR 100253Z 24010KT 10SM CLR 22/13 A2997 RMK AO2 SLP134 T02170133 53011
KCCR 100153Z 24011KT 10SM CLR 24/13 A2995 RMK AO2 SLP127 T02390133
KCCR 100053Z 24014KT 10SM CLR 25/13 A2995 RMK AO2 SLP127 T02500128
KCCR 092353Z 25011KT 10SM CLR 27/13 A2994 RMK AO2 SLP123 T02670128 10283 20233 56009
KCCR 092253Z 24010KT 10SM CLR 28/12 A2994 RMK AO2 SLP124 T02780117
KCCR 092153Z 25011G18KT 10SM CLR 27/12 A2995 RMK AO2 SLP127 T02720117
KCCR 092053Z 24010KT 10SM CLR 27/12 A2996 RMK AO2 SLP132 T02670117 58005
KCCR 091953Z 26013KT 10SM CLR 26/11 A2997 RMK AO2 SLP134 T02610111
KCCR 091853Z 21011G18KT 10SM CLR 26/11 A2998 RMK AO2 SLP137 T02610111
KCCR 091753Z 25008KT 260V250 10SM CLR 23/13 A2998 RMK AO2 SLP137 T02330133 10239 20161 58002
KCCR 091653Z 24006KT 10SM CLR 22/13 A2998 RMK AO2 SLP138 T02220128
KCCR 091553Z 20009KT 10SM FEW020 19/13 A2998 RMK AO2 SLP140 T01940133
KCCR 091453Z 24007KT 10SM FEW016 18/13 A2998 RMK AO2 SLP139 T01780133 51012
KCCR 091353Z AUTO 21007KT 10SM FEW016 16/13 A2998 RMK AO2 SLP137 T01610133
KCCR 091253Z AUTO 20008KT 10SM CLR 16/13 A2996 RMK AO2 SLP131 T01610128
KCCR 091153Z AUTO 20010KT 10SM CLR 17/13 A2995 RMK AO2 SLP127 T01670133 10183 20167 53001
KCCR 091053Z AUTO 19008KT 10SM CLR 17/13 A2994 RMK AO2 SLP125 T01670133
KCCR 090953Z AUTO 20009KT 10SM CLR 17/13 A2994 RMK AO2 SLP126 T01720133
KCCR 090853Z AUTO 20009KT 10SM CLR 17/13 A2994 RMK AO2 SLP126 T01720133 58005
KCCR 090753Z AUTO 20009KT 10SM CLR 18/14 A2996 RMK AO2 SLP131 T01780139 402940161
KCCR 090653Z AUTO 21010KT 10SM CLR 18/14 A2995 RMK AO2 SLP129 T01780139
KCCR 090553Z AUTO 22008KT 10SM CLR 18/14 A2996 RMK AO2 SLP131 T01830139 10283 20183 51011
KCCR 090453Z 20009KT 10SM CLR 19/14 A2996 RMK AO2 SLP131 T01940139
KCCR 090353Z 26008KT 10SM CLR 21/13 A2994 RMK AO2 SLP125 T02110133
KCCR 090253Z 24013KT 10SM CLR 23/13 A2992 RMK AO2 SLP119 T02330133 53002